sensor_id;sensor_type;location;lat;lon;timestamp;P1;durP1;ratioP1;P2;durP2;ratioP2
36351;SDS011;22382;44.768;17.206;2023-04-19T00:02:12;11.48;;;9.98;;
36351;SDS011;22382;44.768;17.206;2023-04-19T00:04:39;12.45;;;10.80;;
36351;SDS011;22382;44.768;17.206;2023-04-19T00:07:07;13.57;;;10.15;;
36351;SDS011;22382;44.768;17.206;2023-04-19T00:09:34;13.88;;;10.27;;
36351;SDS011;22382;44.768;17.206;2023-04-19T00:12:01;13.93;;;11.07;;
36351;SDS011;22382;44.768;17.206;2023-04-19T00:14:29;14.68;;;12.05;;
36351;SDS011;22382;44.768;17.206;2023-04-19T00:16:56;16.00;;;10.98;;
36351;SDS011;22382;44.768;17.206;2023-04-19T00:19:23;15.55;;;11.90;;
36351;SDS011;22382;44.768;17.206;2023-04-19T00:21:51;18.63;;;12.55;;
36351;SDS011;22382;44.768;17.206;2023-04-19T00:24:18;17.63;;;13.02;;
36351;SDS011;22382;44.768;17.206;2023-04-19T00:26:45;16.23;;;12.32;;
36351;SDS011;22382;44.768;17.206;2023-04-19T00:29:12;16.23;;;12.40;;
36351;SDS011;22382;44.768;17.206;2023-04-19T00:31:40;15.85;;;12.15;;
36351;SDS011;22382;44.768;17.206;2023-04-19T00:34:07;16.73;;;12.68;;
36351;SDS011;22382;44.768;17.206;2023-04-19T00:36:34;34.15;;;25.85;;
36351;SDS011;22382;44.768;17.206;2023-04-19T00:39:01;35.78;;;24.98;;
36351;SDS011;22382;44.768;17.206;2023-04-19T00:41:29;27.15;;;21.30;;
36351;SDS011;22382;44.768;17.206;2023-04-19T00:43:56;27.30;;;20.33;;
36351;SDS011;22382;44.768;17.206;2023-04-19T00:46:23;25.67;;;19.27;;
36351;SDS011;22382;44.768;17.206;2023-04-19T00:48:51;23.65;;;18.23;;
36351;SDS011;22382;44.768;17.206;2023-04-19T00:51:18;21.08;;;16.67;;
36351;SDS011;22382;44.768;17.206;2023-04-19T00:53:46;20.33;;;15.20;;
36351;SDS011;22382;44.768;17.206;2023-04-19T00:56:14;21.33;;;16.17;;
36351;SDS011;22382;44.768;17.206;2023-04-19T00:58:43;21.27;;;15.57;;
36351;SDS011;22382;44.768;17.206;2023-04-19T01:01:10;21.92;;;16.40;;
36351;SDS011;22382;44.768;17.206;2023-04-19T01:03:38;21.63;;;16.92;;
36351;SDS011;22382;44.768;17.206;2023-04-19T01:06:05;22.35;;;15.93;;
36351;SDS011;22382;44.768;17.206;2023-04-19T01:08:33;19.83;;;14.88;;
36351;SDS011;22382;44.768;17.206;2023-04-19T01:11:00;21.83;;;15.57;;
36351;SDS011;22382;44.768;17.206;2023-04-19T01:13:27;19.65;;;15.20;;
36351;SDS011;22382;44.768;17.206;2023-04-19T01:15:54;22.88;;;15.73;;
36351;SDS011;22382;44.768;17.206;2023-04-19T01:18:23;19.42;;;15.43;;
36351;SDS011;22382;44.768;17.206;2023-04-19T01:20:51;20.08;;;15.23;;
36351;SDS011;22382;44.768;17.206;2023-04-19T01:23:18;32.17;;;21.42;;
36351;SDS011;22382;44.768;17.206;2023-04-19T01:25:45;20.55;;;15.65;;
36351;SDS011;22382;44.768;17.206;2023-04-19T01:28:13;21.20;;;15.05;;
36351;SDS011;22382;44.768;17.206;2023-04-19T01:30:40;34.63;;;20.63;;
36351;SDS011;22382;44.768;17.206;2023-04-19T01:33:08;31.50;;;20.25;;
36351;SDS011;22382;44.768;17.206;2023-04-19T01:35:35;28.15;;;18.73;;
36351;SDS011;22382;44.768;17.206;2023-04-19T01:38:02;27.27;;;16.63;;
36351;SDS011;22382;44.768;17.206;2023-04-19T01:40:30;31.05;;;17.70;;
36351;SDS011;22382;44.768;17.206;2023-04-19T01:42:58;21.92;;;15.05;;
36351;SDS011;22382;44.768;17.206;2023-04-19T01:45:25;23.15;;;16.10;;
36351;SDS011;22382;44.768;17.206;2023-04-19T01:47:52;26.05;;;16.13;;
36351;SDS011;22382;44.768;17.206;2023-04-19T01:50:19;24.83;;;16.02;;
36351;SDS011;22382;44.768;17.206;2023-04-19T01:52:46;22.55;;;16.08;;
36351;SDS011;22382;44.768;17.206;2023-04-19T01:55:13;25.33;;;15.55;;
36351;SDS011;22382;44.768;17.206;2023-04-19T01:57:41;19.45;;;13.35;;
36351;SDS011;22382;44.768;17.206;2023-04-19T02:00:08;17.15;;;13.13;;
36351;SDS011;22382;44.768;17.206;2023-04-19T02:02:37;19.90;;;13.55;;
36351;SDS011;22382;44.768;17.206;2023-04-19T02:05:05;17.40;;;12.80;;
36351;SDS011;22382;44.768;17.206;2023-04-19T02:07:33;17.25;;;13.50;;
36351;SDS011;22382;44.768;17.206;2023-04-19T02:10:00;18.13;;;13.55;;
36351;SDS011;22382;44.768;17.206;2023-04-19T02:12:30;18.70;;;13.25;;
36351;SDS011;22382;44.768;17.206;2023-04-19T02:14:59;16.15;;;11.68;;
36351;SDS011;22382;44.768;17.206;2023-04-19T02:17:29;18.35;;;13.02;;
36351;SDS011;22382;44.768;17.206;2023-04-19T02:19:57;16.75;;;12.68;;
36351;SDS011;22382;44.768;17.206;2023-04-19T02:22:25;18.77;;;13.40;;
36351;SDS011;22382;44.768;17.206;2023-04-19T02:24:52;17.85;;;13.65;;
36351;SDS011;22382;44.768;17.206;2023-04-19T02:27:19;18.85;;;13.77;;
36351;SDS011;22382;44.768;17.206;2023-04-19T02:29:46;17.30;;;14.70;;
36351;SDS011;22382;44.768;17.206;2023-04-19T02:32:13;16.77;;;13.43;;
36351;SDS011;22382;44.768;17.206;2023-04-19T02:34:41;17.35;;;13.45;;
36351;SDS011;22382;44.768;17.206;2023-04-19T02:37:08;18.33;;;13.88;;
36351;SDS011;22382;44.768;17.206;2023-04-19T02:39:35;18.60;;;14.13;;
36351;SDS011;22382;44.768;17.206;2023-04-19T02:42:02;18.55;;;15.45;;
36351;SDS011;22382;44.768;17.206;2023-04-19T02:44:30;19.00;;;14.73;;
36351;SDS011;22382;44.768;17.206;2023-04-19T02:46:58;18.83;;;14.32;;
36351;SDS011;22382;44.768;17.206;2023-04-19T02:49:25;20.02;;;16.55;;
36351;SDS011;22382;44.768;17.206;2023-04-19T02:51:52;22.70;;;16.15;;
36351;SDS011;22382;44.768;17.206;2023-04-19T02:54:19;18.60;;;14.30;;
36351;SDS011;22382;44.768;17.206;2023-04-19T02:56:46;21.35;;;16.70;;
36351;SDS011;22382;44.768;17.206;2023-04-19T02:59:14;20.35;;;16.50;;
36351;SDS011;22382;44.768;17.206;2023-04-19T03:01:41;22.98;;;16.67;;
36351;SDS011;22382;44.768;17.206;2023-04-19T03:04:08;21.55;;;16.58;;
36351;SDS011;22382;44.768;17.206;2023-04-19T03:06:35;21.15;;;16.50;;
36351;SDS011;22382;44.768;17.206;2023-04-19T03:09:03;20.35;;;16.15;;
36351;SDS011;22382;44.768;17.206;2023-04-19T03:11:30;23.20;;;18.35;;
36351;SDS011;22382;44.768;17.206;2023-04-19T03:13:57;26.02;;;19.08;;
36351;SDS011;22382;44.768;17.206;2023-04-19T03:16:24;24.90;;;19.45;;
36351;SDS011;22382;44.768;17.206;2023-04-19T03:18:52;25.92;;;19.67;;
36351;SDS011;22382;44.768;17.206;2023-04-19T03:21:19;23.40;;;17.38;;
36351;SDS011;22382;44.768;17.206;2023-04-19T03:23:46;24.60;;;18.23;;
36351;SDS011;22382;44.768;17.206;2023-04-19T03:26:13;24.13;;;17.35;;
36351;SDS011;22382;44.768;17.206;2023-04-19T03:28:40;23.00;;;17.92;;
36351;SDS011;22382;44.768;17.206;2023-04-19T03:31:08;27.63;;;19.15;;
36351;SDS011;22382;44.768;17.206;2023-04-19T03:33:35;23.92;;;17.80;;
36351;SDS011;22382;44.768;17.206;2023-04-19T03:36:02;24.17;;;17.27;;
36351;SDS011;22382;44.768;17.206;2023-04-19T03:38:30;24.45;;;18.38;;
36351;SDS011;22382;44.768;17.206;2023-04-19T03:40:57;24.27;;;18.00;;
36351;SDS011;22382;44.768;17.206;2023-04-19T03:43:24;22.08;;;17.55;;
36351;SDS011;22382;44.768;17.206;2023-04-19T03:45:51;25.60;;;17.85;;
36351;SDS011;22382;44.768;17.206;2023-04-19T03:48:19;30.05;;;18.75;;
36351;SDS011;22382;44.768;17.206;2023-04-19T03:50:46;24.92;;;18.98;;
36351;SDS011;22382;44.768;17.206;2023-04-19T03:53:13;28.67;;;19.40;;
36351;SDS011;22382;44.768;17.206;2023-04-19T03:55:40;24.13;;;18.58;;
36351;SDS011;22382;44.768;17.206;2023-04-19T03:58:07;25.58;;;17.98;;
36351;SDS011;22382;44.768;17.206;2023-04-19T04:00:35;22.90;;;17.75;;
36351;SDS011;22382;44.768;17.206;2023-04-19T04:03:02;25.25;;;17.35;;
36351;SDS011;22382;44.768;17.206;2023-04-19T04:05:30;25.00;;;18.10;;
36351;SDS011;22382;44.768;17.206;2023-04-19T04:07:57;23.05;;;16.33;;
36351;SDS011;22382;44.768;17.206;2023-04-19T04:10:24;24.13;;;17.48;;
36351;SDS011;22382;44.768;17.206;2023-04-19T04:12:52;23.08;;;17.05;;
36351;SDS011;22382;44.768;17.206;2023-04-19T04:15:19;24.73;;;17.17;;
36351;SDS011;22382;44.768;17.206;2023-04-19T04:17:46;30.17;;;19.52;;
36351;SDS011;22382;44.768;17.206;2023-04-19T04:20:14;24.30;;;17.52;;
36351;SDS011;22382;44.768;17.206;2023-04-19T04:22:42;22.65;;;16.88;;
36351;SDS011;22382;44.768;17.206;2023-04-19T04:25:12;20.30;;;16.70;;
36351;SDS011;22382;44.768;17.206;2023-04-19T04:27:42;19.70;;;15.60;;
36351;SDS011;22382;44.768;17.206;2023-04-19T04:30:13;21.75;;;17.27;;
36351;SDS011;22382;44.768;17.206;2023-04-19T04:32:40;24.13;;;16.08;;
36351;SDS011;22382;44.768;17.206;2023-04-19T04:35:07;20.50;;;15.75;;
36351;SDS011;22382;44.768;17.206;2023-04-19T04:37:36;19.45;;;15.20;;
36351;SDS011;22382;44.768;17.206;2023-04-19T04:40:03;22.38;;;15.95;;
36351;SDS011;22382;44.768;17.206;2023-04-19T04:42:31;24.27;;;16.30;;
36351;SDS011;22382;44.768;17.206;2023-04-19T04:44:59;20.90;;;15.13;;
36351;SDS011;22382;44.768;17.206;2023-04-19T04:47:33;19.08;;;14.60;;
36351;SDS011;22382;44.768;17.206;2023-04-19T04:50:00;20.38;;;14.70;;
36351;SDS011;22382;44.768;17.206;2023-04-19T04:52:28;20.58;;;15.25;;
36351;SDS011;22382;44.768;17.206;2023-04-19T04:54:55;21.33;;;15.05;;
36351;SDS011;22382;44.768;17.206;2023-04-19T04:57:22;18.90;;;13.70;;
36351;SDS011;22382;44.768;17.206;2023-04-19T04:59:49;23.38;;;14.65;;
36351;SDS011;22382;44.768;17.206;2023-04-19T05:02:17;18.10;;;14.27;;
36351;SDS011;22382;44.768;17.206;2023-04-19T05:04:44;20.08;;;14.50;;
36351;SDS011;22382;44.768;17.206;2023-04-19T05:07:11;18.20;;;14.63;;
36351;SDS011;22382;44.768;17.206;2023-04-19T05:09:38;16.52;;;12.90;;
36351;SDS011;22382;44.768;17.206;2023-04-19T05:12:06;16.95;;;13.10;;
36351;SDS011;22382;44.768;17.206;2023-04-19T05:14:33;19.27;;;13.27;;
36351;SDS011;22382;44.768;17.206;2023-04-19T05:17:00;16.77;;;13.20;;
36351;SDS011;22382;44.768;17.206;2023-04-19T05:19:31;19.95;;;12.88;;
36351;SDS011;22382;44.768;17.206;2023-04-19T05:21:58;17.38;;;12.82;;
36351;SDS011;22382;44.768;17.206;2023-04-19T05:24:26;17.40;;;11.98;;
36351;SDS011;22382;44.768;17.206;2023-04-19T05:26:53;22.10;;;14.82;;
36351;SDS011;22382;44.768;17.206;2023-04-19T05:29:20;19.80;;;15.10;;
36351;SDS011;22382;44.768;17.206;2023-04-19T05:31:47;15.13;;;11.18;;
36351;SDS011;22382;44.768;17.206;2023-04-19T05:34:15;18.80;;;13.00;;
36351;SDS011;22382;44.768;17.206;2023-04-19T05:36:46;17.23;;;12.25;;
36351;SDS011;22382;44.768;17.206;2023-04-19T05:39:13;18.88;;;12.05;;
36351;SDS011;22382;44.768;17.206;2023-04-19T05:41:40;16.58;;;12.48;;
36351;SDS011;22382;44.768;17.206;2023-04-19T05:44:08;16.70;;;10.98;;
36351;SDS011;22382;44.768;17.206;2023-04-19T05:46:35;12.40;;;9.98;;
36351;SDS011;22382;44.768;17.206;2023-04-19T05:49:02;14.30;;;10.90;;
36351;SDS011;22382;44.768;17.206;2023-04-19T05:51:29;15.32;;;10.85;;
36351;SDS011;22382;44.768;17.206;2023-04-19T05:53:58;13.35;;;9.80;;
36351;SDS011;22382;44.768;17.206;2023-04-19T05:56:26;14.15;;;9.93;;
36351;SDS011;22382;44.768;17.206;2023-04-19T05:58:53;17.83;;;11.82;;
36351;SDS011;22382;44.768;17.206;2023-04-19T06:01:22;13.18;;;9.90;;
36351;SDS011;22382;44.768;17.206;2023-04-19T06:03:49;14.00;;;10.45;;
36351;SDS011;22382;44.768;17.206;2023-04-19T06:06:22;15.13;;;9.98;;
36351;SDS011;22382;44.768;17.206;2023-04-19T06:08:50;13.52;;;10.00;;
36351;SDS011;22382;44.768;17.206;2023-04-19T06:11:19;14.10;;;9.48;;
36351;SDS011;22382;44.768;17.206;2023-04-19T06:13:56;13.88;;;9.32;;
36351;SDS011;22382;44.768;17.206;2023-04-19T06:16:24;13.45;;;9.15;;
36351;SDS011;22382;44.768;17.206;2023-04-19T06:18:51;13.45;;;10.02;;
36351;SDS011;22382;44.768;17.206;2023-04-19T06:21:18;11.05;;;8.77;;
36351;SDS011;22382;44.768;17.206;2023-04-19T06:23:45;12.27;;;9.18;;
36351;SDS011;22382;44.768;17.206;2023-04-19T06:26:12;12.63;;;8.10;;
36351;SDS011;22382;44.768;17.206;2023-04-19T06:28:39;14.60;;;9.27;;
36351;SDS011;22382;44.768;17.206;2023-04-19T06:31:07;12.20;;;8.50;;
36351;SDS011;22382;44.768;17.206;2023-04-19T06:33:34;12.43;;;8.88;;
36351;SDS011;22382;44.768;17.206;2023-04-19T06:36:01;12.60;;;8.45;;
36351;SDS011;22382;44.768;17.206;2023-04-19T06:38:29;11.52;;;8.07;;
36351;SDS011;22382;44.768;17.206;2023-04-19T06:40:56;10.45;;;8.30;;
36351;SDS011;22382;44.768;17.206;2023-04-19T06:43:23;11.77;;;8.27;;
36351;SDS011;22382;44.768;17.206;2023-04-19T06:45:59;12.38;;;7.82;;
36351;SDS011;22382;44.768;17.206;2023-04-19T06:48:28;11.00;;;7.53;;
36351;SDS011;22382;44.768;17.206;2023-04-19T06:50:56;11.93;;;7.68;;
36351;SDS011;22382;44.768;17.206;2023-04-19T06:53:23;9.77;;;7.75;;
36351;SDS011;22382;44.768;17.206;2023-04-19T06:55:57;13.20;;;7.68;;
36351;SDS011;22382;44.768;17.206;2023-04-19T06:58:26;12.57;;;7.47;;
36351;SDS011;22382;44.768;17.206;2023-04-19T07:00:54;12.18;;;8.13;;
36351;SDS011;22382;44.768;17.206;2023-04-19T07:03:22;9.55;;;7.88;;
36351;SDS011;22382;44.768;17.206;2023-04-19T07:05:49;12.82;;;8.23;;
36351;SDS011;22382;44.768;17.206;2023-04-19T07:08:18;9.52;;;6.80;;
36351;SDS011;22382;44.768;17.206;2023-04-19T07:10:45;10.98;;;6.97;;
36351;SDS011;22382;44.768;17.206;2023-04-19T07:13:12;10.45;;;7.90;;
36351;SDS011;22382;44.768;17.206;2023-04-19T07:15:39;8.07;;;6.25;;
36351;SDS011;22382;44.768;17.206;2023-04-19T07:18:07;10.23;;;6.68;;
36351;SDS011;22382;44.768;17.206;2023-04-19T07:20:36;14.00;;;7.65;;
36351;SDS011;22382;44.768;17.206;2023-04-19T07:23:04;12.63;;;7.97;;
36351;SDS011;22382;44.768;17.206;2023-04-19T07:25:31;12.07;;;7.78;;
36351;SDS011;22382;44.768;17.206;2023-04-19T07:27:58;14.70;;;8.32;;
36351;SDS011;22382;44.768;17.206;2023-04-19T07:30:25;13.45;;;8.30;;
36351;SDS011;22382;44.768;17.206;2023-04-19T07:32:53;10.00;;;7.63;;
36351;SDS011;22382;44.768;17.206;2023-04-19T07:35:20;11.13;;;7.90;;
36351;SDS011;22382;44.768;17.206;2023-04-19T07:37:48;12.05;;;8.85;;
36351;SDS011;22382;44.768;17.206;2023-04-19T07:40:15;11.13;;;8.02;;
36351;SDS011;22382;44.768;17.206;2023-04-19T07:42:42;11.68;;;7.53;;
36351;SDS011;22382;44.768;17.206;2023-04-19T07:45:09;10.27;;;7.68;;
36351;SDS011;22382;44.768;17.206;2023-04-19T07:47:37;11.35;;;7.00;;
36351;SDS011;22382;44.768;17.206;2023-04-19T07:50:04;8.20;;;6.43;;
36351;SDS011;22382;44.768;17.206;2023-04-19T07:52:33;10.63;;;6.88;;
36351;SDS011;22382;44.768;17.206;2023-04-19T07:55:00;10.38;;;7.22;;
36351;SDS011;22382;44.768;17.206;2023-04-19T07:57:27;9.05;;;5.80;;
36351;SDS011;22382;44.768;17.206;2023-04-19T07:59:55;9.15;;;5.80;;
36351;SDS011;22382;44.768;17.206;2023-04-19T08:02:25;8.73;;;5.80;;
36351;SDS011;22382;44.768;17.206;2023-04-19T08:04:53;7.40;;;5.53;;
36351;SDS011;22382;44.768;17.206;2023-04-19T08:07:21;8.07;;;5.70;;
36351;SDS011;22382;44.768;17.206;2023-04-19T08:09:49;8.30;;;5.72;;
36351;SDS011;22382;44.768;17.206;2023-04-19T08:12:16;8.05;;;5.07;;
36351;SDS011;22382;44.768;17.206;2023-04-19T08:15:00;9.30;;;5.43;;
36351;SDS011;22382;44.768;17.206;2023-04-19T08:17:48;7.32;;;5.80;;
36351;SDS011;22382;44.768;17.206;2023-04-19T08:20:16;6.30;;;5.50;;
36351;SDS011;22382;44.768;17.206;2023-04-19T08:22:43;7.25;;;5.65;;
36351;SDS011;22382;44.768;17.206;2023-04-19T08:25:11;8.90;;;5.40;;
36351;SDS011;22382;44.768;17.206;2023-04-19T08:27:38;7.00;;;5.22;;
36351;SDS011;22382;44.768;17.206;2023-04-19T08:30:05;9.13;;;5.43;;
36351;SDS011;22382;44.768;17.206;2023-04-19T08:32:33;9.65;;;4.80;;
36351;SDS011;22382;44.768;17.206;2023-04-19T08:35:01;7.30;;;4.93;;
36351;SDS011;22382;44.768;17.206;2023-04-19T08:37:29;9.57;;;4.70;;
36351;SDS011;22382;44.768;17.206;2023-04-19T08:39:56;6.32;;;3.90;;
36351;SDS011;22382;44.768;17.206;2023-04-19T08:42:23;8.93;;;5.00;;
36351;SDS011;22382;44.768;17.206;2023-04-19T08:45:02;6.18;;;4.60;;
36351;SDS011;22382;44.768;17.206;2023-04-19T08:47:37;9.40;;;5.10;;
36351;SDS011;22382;44.768;17.206;2023-04-19T08:50:08;9.32;;;5.50;;
36351;SDS011;22382;44.768;17.206;2023-04-19T08:52:57;8.07;;;5.22;;
36351;SDS011;22382;44.768;17.206;2023-04-19T08:55:45;6.18;;;4.65;;
36351;SDS011;22382;44.768;17.206;2023-04-19T08:58:34;10.15;;;5.50;;
36351;SDS011;22382;44.768;17.206;2023-04-19T09:01:21;10.57;;;5.28;;
36351;SDS011;22382;44.768;17.206;2023-04-19T09:04:04;6.93;;;4.90;;
36351;SDS011;22382;44.768;17.206;2023-04-19T09:06:53;8.20;;;4.85;;
36351;SDS011;22382;44.768;17.206;2023-04-19T09:09:21;6.88;;;5.32;;
36351;SDS011;22382;44.768;17.206;2023-04-19T09:12:15;9.35;;;5.40;;
36351;SDS011;22382;44.768;17.206;2023-04-19T09:14:44;8.88;;;5.30;;
36351;SDS011;22382;44.768;17.206;2023-04-19T09:17:26;10.50;;;5.82;;
36351;SDS011;22382;44.768;17.206;2023-04-19T09:19:54;8.23;;;6.25;;
36351;SDS011;22382;44.768;17.206;2023-04-19T09:22:21;9.50;;;5.18;;
36351;SDS011;22382;44.768;17.206;2023-04-19T09:24:49;7.53;;;5.28;;
36351;SDS011;22382;44.768;17.206;2023-04-19T09:27:27;8.50;;;5.45;;
36351;SDS011;22382;44.768;17.206;2023-04-19T09:29:59;7.97;;;4.10;;
36351;SDS011;22382;44.768;17.206;2023-04-19T09:32:28;6.03;;;4.15;;
36351;SDS011;22382;44.768;17.206;2023-04-19T09:37:38;8.23;;;4.53;;
36351;SDS011;22382;44.768;17.206;2023-04-19T09:40:27;9.07;;;4.50;;
36351;SDS011;22382;44.768;17.206;2023-04-19T09:42:54;8.55;;;4.50;;
36351;SDS011;22382;44.768;17.206;2023-04-19T09:45:25;5.28;;;3.60;;
36351;SDS011;22382;44.768;17.206;2023-04-19T09:48:00;5.30;;;3.97;;
36351;SDS011;22382;44.768;17.206;2023-04-19T09:50:29;9.00;;;5.00;;
36351;SDS011;22382;44.768;17.206;2023-04-19T09:52:58;5.45;;;3.88;;
36351;SDS011;22382;44.768;17.206;2023-04-19T09:55:26;6.93;;;4.40;;
36351;SDS011;22382;44.768;17.206;2023-04-19T09:58:17;7.57;;;3.95;;
36351;SDS011;22382;44.768;17.206;2023-04-19T10:00:48;7.38;;;5.45;;
36351;SDS011;22382;44.768;17.206;2023-04-19T10:03:22;8.20;;;5.40;;
36351;SDS011;22382;44.768;17.206;2023-04-19T10:05:54;6.75;;;5.10;;
36351;SDS011;22382;44.768;17.206;2023-04-19T10:08:22;9.63;;;4.63;;
36351;SDS011;22382;44.768;17.206;2023-04-19T10:10:52;7.85;;;4.15;;
36351;SDS011;22382;44.768;17.206;2023-04-19T10:13:20;8.05;;;4.53;;
36351;SDS011;22382;44.768;17.206;2023-04-19T10:15:52;7.25;;;4.63;;
36351;SDS011;22382;44.768;17.206;2023-04-19T10:18:33;7.28;;;4.82;;
36351;SDS011;22382;44.768;17.206;2023-04-19T10:21:03;9.07;;;5.03;;
36351;SDS011;22382;44.768;17.206;2023-04-19T10:23:32;7.47;;;4.53;;
36351;SDS011;22382;44.768;17.206;2023-04-19T10:26:00;8.40;;;4.57;;
36351;SDS011;22382;44.768;17.206;2023-04-19T10:28:28;8.77;;;5.65;;
36351;SDS011;22382;44.768;17.206;2023-04-19T10:30:59;8.57;;;4.20;;
36351;SDS011;22382;44.768;17.206;2023-04-19T10:33:29;7.85;;;3.70;;
36351;SDS011;22382;44.768;17.206;2023-04-19T10:36:01;4.88;;;3.53;;
36351;SDS011;22382;44.768;17.206;2023-04-19T10:38:36;4.85;;;3.92;;
36351;SDS011;22382;44.768;17.206;2023-04-19T10:41:05;6.32;;;3.80;;
36351;SDS011;22382;44.768;17.206;2023-04-19T10:49:00;4.35;;;3.42;;
36351;SDS011;22382;44.768;17.206;2023-04-19T10:51:32;6.90;;;4.03;;
36351;SDS011;22382;44.768;17.206;2023-04-19T10:57:04;6.38;;;3.65;;
36351;SDS011;22382;44.768;17.206;2023-04-19T10:59:33;15.65;;;4.50;;
36351;SDS011;22382;44.768;17.206;2023-04-19T11:02:05;5.38;;;3.35;;
36351;SDS011;22382;44.768;17.206;2023-04-19T11:07:23;6.25;;;2.70;;
36351;SDS011;22382;44.768;17.206;2023-04-19T11:09:50;4.30;;;2.10;;
36351;SDS011;22382;44.768;17.206;2023-04-19T11:12:18;5.95;;;2.50;;
36351;SDS011;22382;44.768;17.206;2023-04-19T11:17:18;4.93;;;3.00;;
36351;SDS011;22382;44.768;17.206;2023-04-19T11:19:57;4.78;;;3.00;;
36351;SDS011;22382;44.768;17.206;2023-04-19T11:25:03;6.97;;;3.30;;
36351;SDS011;22382;44.768;17.206;2023-04-19T11:27:32;7.75;;;3.22;;
36351;SDS011;22382;44.768;17.206;2023-04-19T11:30:07;8.23;;;3.00;;
36351;SDS011;22382;44.768;17.206;2023-04-19T11:32:37;4.65;;;2.90;;
36351;SDS011;22382;44.768;17.206;2023-04-19T11:35:10;4.93;;;2.55;;
36351;SDS011;22382;44.768;17.206;2023-04-19T11:37:37;3.83;;;2.63;;
36351;SDS011;22382;44.768;17.206;2023-04-19T11:40:05;5.68;;;3.10;;
36351;SDS011;22382;44.768;17.206;2023-04-19T11:42:34;3.47;;;2.38;;
36351;SDS011;22382;44.768;17.206;2023-04-19T11:45:02;4.30;;;2.17;;
36351;SDS011;22382;44.768;17.206;2023-04-19T11:47:34;8.30;;;2.38;;
36351;SDS011;22382;44.768;17.206;2023-04-19T11:53:08;4.40;;;2.17;;
36351;SDS011;22382;44.768;17.206;2023-04-19T11:55:37;3.63;;;2.30;;
36351;SDS011;22382;44.768;17.206;2023-04-19T11:58:07;4.68;;;2.53;;
36351;SDS011;22382;44.768;17.206;2023-04-19T12:00:37;3.67;;;2.22;;
36351;SDS011;22382;44.768;17.206;2023-04-19T12:03:04;3.20;;;2.05;;
36351;SDS011;22382;44.768;17.206;2023-04-19T12:05:32;3.58;;;1.85;;
36351;SDS011;22382;44.768;17.206;2023-04-19T12:08:00;4.13;;;2.35;;
36351;SDS011;22382;44.768;17.206;2023-04-19T12:10:33;4.30;;;1.90;;
36351;SDS011;22382;44.768;17.206;2023-04-19T12:13:23;2.13;;;1.50;;
36351;SDS011;22382;44.768;17.206;2023-04-19T12:15:51;4.03;;;2.13;;
36351;SDS011;22382;44.768;17.206;2023-04-19T12:18:18;4.45;;;2.40;;
36351;SDS011;22382;44.768;17.206;2023-04-19T12:20:47;4.45;;;2.20;;
36351;SDS011;22382;44.768;17.206;2023-04-19T12:23:17;6.90;;;2.65;;
36351;SDS011;22382;44.768;17.206;2023-04-19T12:25:46;6.90;;;2.85;;
36351;SDS011;22382;44.768;17.206;2023-04-19T12:28:14;4.55;;;2.50;;
36351;SDS011;22382;44.768;17.206;2023-04-19T12:30:42;3.20;;;2.45;;
36351;SDS011;22382;44.768;17.206;2023-04-19T12:33:09;5.35;;;2.50;;
36351;SDS011;22382;44.768;17.206;2023-04-19T12:35:37;4.93;;;2.75;;
36351;SDS011;22382;44.768;17.206;2023-04-19T12:38:04;5.82;;;3.80;;
36351;SDS011;22382;44.768;17.206;2023-04-19T12:40:31;7.15;;;4.05;;
36351;SDS011;22382;44.768;17.206;2023-04-19T12:42:59;5.82;;;2.85;;
36351;SDS011;22382;44.768;17.206;2023-04-19T12:45:26;7.97;;;3.42;;
36351;SDS011;22382;44.768;17.206;2023-04-19T12:47:53;6.80;;;4.00;;
36351;SDS011;22382;44.768;17.206;2023-04-19T12:50:20;5.60;;;3.10;;
36351;SDS011;22382;44.768;17.206;2023-04-19T12:52:48;7.78;;;3.58;;
36351;SDS011;22382;44.768;17.206;2023-04-19T12:55:17;4.80;;;3.47;;
36351;SDS011;22382;44.768;17.206;2023-04-19T12:57:44;8.70;;;3.33;;
36351;SDS011;22382;44.768;17.206;2023-04-19T13:00:11;6.47;;;3.55;;
36351;SDS011;22382;44.768;17.206;2023-04-19T13:02:38;10.98;;;4.28;;
36351;SDS011;22382;44.768;17.206;2023-04-19T13:05:06;8.27;;;4.68;;
36351;SDS011;22382;44.768;17.206;2023-04-19T13:07:33;6.97;;;4.20;;
36351;SDS011;22382;44.768;17.206;2023-04-19T13:10:00;6.88;;;2.67;;
36351;SDS011;22382;44.768;17.206;2023-04-19T13:12:30;4.18;;;1.83;;
36351;SDS011;22382;44.768;17.206;2023-04-19T13:14:57;6.38;;;2.08;;
36351;SDS011;22382;44.768;17.206;2023-04-19T13:17:27;5.20;;;2.85;;
36351;SDS011;22382;44.768;17.206;2023-04-19T13:19:55;4.38;;;2.28;;
36351;SDS011;22382;44.768;17.206;2023-04-19T13:22:22;3.25;;;2.50;;
36351;SDS011;22382;44.768;17.206;2023-04-19T13:24:49;3.83;;;2.10;;
36351;SDS011;22382;44.768;17.206;2023-04-19T13:27:16;4.68;;;2.70;;
36351;SDS011;22382;44.768;17.206;2023-04-19T13:29:43;2.35;;;2.05;;
36351;SDS011;22382;44.768;17.206;2023-04-19T13:32:11;7.20;;;2.53;;
36351;SDS011;22382;44.768;17.206;2023-04-19T13:34:38;5.95;;;3.33;;
36351;SDS011;22382;44.768;17.206;2023-04-19T13:37:06;5.75;;;3.75;;
36351;SDS011;22382;44.768;17.206;2023-04-19T13:39:33;6.40;;;3.03;;
36351;SDS011;22382;44.768;17.206;2023-04-19T13:42:00;6.20;;;3.10;;
36351;SDS011;22382;44.768;17.206;2023-04-19T13:44:28;5.63;;;2.83;;
36351;SDS011;22382;44.768;17.206;2023-04-19T13:46:55;6.03;;;3.47;;
36351;SDS011;22382;44.768;17.206;2023-04-19T13:49:23;3.95;;;2.85;;
36351;SDS011;22382;44.768;17.206;2023-04-19T13:51:51;5.55;;;2.95;;
36351;SDS011;22382;44.768;17.206;2023-04-19T13:54:18;3.30;;;2.15;;
36351;SDS011;22382;44.768;17.206;2023-04-19T13:56:46;2.97;;;1.70;;
36351;SDS011;22382;44.768;17.206;2023-04-19T13:59:17;2.42;;;2.20;;
36351;SDS011;22382;44.768;17.206;2023-04-19T14:01:46;3.58;;;2.13;;
36351;SDS011;22382;44.768;17.206;2023-04-19T14:04:13;3.88;;;2.55;;
36351;SDS011;22382;44.768;17.206;2023-04-19T14:06:41;4.70;;;2.30;;
36351;SDS011;22382;44.768;17.206;2023-04-19T14:09:09;5.93;;;2.65;;
36351;SDS011;22382;44.768;17.206;2023-04-19T14:11:36;6.70;;;4.00;;
36351;SDS011;22382;44.768;17.206;2023-04-19T14:14:04;6.80;;;3.65;;
36351;SDS011;22382;44.768;17.206;2023-04-19T14:16:31;4.70;;;2.95;;
36351;SDS011;22382;44.768;17.206;2023-04-19T14:18:58;7.25;;;3.33;;
36351;SDS011;22382;44.768;17.206;2023-04-19T14:21:26;5.13;;;2.88;;
36351;SDS011;22382;44.768;17.206;2023-04-19T14:23:53;6.97;;;3.30;;
36351;SDS011;22382;44.768;17.206;2023-04-19T14:26:21;6.82;;;2.72;;
36351;SDS011;22382;44.768;17.206;2023-04-19T14:28:48;4.93;;;2.20;;
36351;SDS011;22382;44.768;17.206;2023-04-19T14:31:15;3.90;;;1.83;;
36351;SDS011;22382;44.768;17.206;2023-04-19T14:33:42;3.05;;;1.80;;
36351;SDS011;22382;44.768;17.206;2023-04-19T14:36:10;2.42;;;1.73;;
36351;SDS011;22382;44.768;17.206;2023-04-19T14:38:37;2.22;;;1.80;;
36351;SDS011;22382;44.768;17.206;2023-04-19T14:41:04;5.00;;;1.88;;
36351;SDS011;22382;44.768;17.206;2023-04-19T14:43:31;2.58;;;1.75;;
36351;SDS011;22382;44.768;17.206;2023-04-19T14:45:59;3.90;;;1.80;;
36351;SDS011;22382;44.768;17.206;2023-04-19T14:48:27;5.90;;;2.47;;
36351;SDS011;22382;44.768;17.206;2023-04-19T14:50:54;3.72;;;2.15;;
36351;SDS011;22382;44.768;17.206;2023-04-19T14:53:21;3.42;;;1.83;;